Bowman Field Louisville US
ICAO: KLOU
IATA: LOU
Category: Medium
Scheduled Services: No

Elevation: 546 ft
TransAlt. 18000 ft.

Airport Communications:
LOUISVILLE APP/DEP:123.675
ATIS:112.2
CLNC DEL:118.9
CTAF:119.5
GND:121.8
LOUISVILLE RDO:122.2
TWR:119.5
UNICOM:122.95

KLOU Zoom In..

If you have problems with the map follow the link
https://www.worldairports.se/pages/airport.php?
ICAO=KLOU

Runways:

(A) RW 06 length 4358 ft width 75 ft
---- / hdg 64

(B) RW 15 length 3580 ft width 75 ft
---- / hdg 147

(C) RW 24 length 4358 ft width 75 ft
---- / hdg 244

(D) RW 33 length 3580 ft width 75 ft
---- / hdg 327

Location; KLOU
Day. 18 / Time. 11.53 Zulu
* Altimeter: 29.99
* Temperature: 09° c. 48.2°f.
* Wind from: 180° Speed 19 kn with Gusts up to 30 kn.
Dewpoint: -01° c.
Visibility: 10 Statute Miles.
Clouds: Few 6000 ft.
Clouds: Broken 8000 ft.
Clouds: Overcast 11000 ft.
Conditions: Light Rain.

KLOU 181153Z 18019G30KT 10SM -RA FEW060 BKN080 OVC110 09/M01 A2999 RMK AO2 PK WND 20030/1152 RAB02E13B47 SLP158 P0000 60009 70009 T00941011 10100 20039 56046


Wind From 180°
Speed 19 kn.

 
 
jpsmedia worldairports.se 2020   terms of use